Time;durP1;ratioP1;P1;durP2;ratioP2;P2;SDS_P1;SDS_P2;PMS_P1;PMS_P2;Temp;Humidity;BMP_temperature;BMP_pressure;BME280_temperature;BME280_humidity;BME280_pressure;Samples;Min_cycle;Max_cycle;Signal;HPM_P1;HPM_P2
2022/02/11 00:00:53;;;;;;;17.25;12.47;;;;;;;7.16;100.00;98828.95;2171264;82;21594;-90
2022/02/11 00:07:06;;;;;;;17.70;13.53;;;;;;;7.13;100.00;98844.86;2162703;82;20993;-90
2022/02/11 00:10:00;;;;;;;17.02;12.15;;;;;;;7.13;100.00;98841.80;2169033;82;21085;-90
2022/02/11 00:13:01;;;;;;;15.08;13.25;;;;;;;7.12;100.00;98844.54;2170006;82;21029;-91
2022/02/11 00:16:01;;;;;;;17.85;12.35;;;;;;;7.07;100.00;98837.69;2169858;82;20970;-90
2022/02/11 00:19:02;;;;;;;16.35;13.30;;;;;;;7.07;100.00;98849.41;2170455;82;21096;-90
2022/02/11 00:22:03;;;;;;;20.95;14.03;;;;;;;7.06;100.00;98851.69;2169733;82;21536;-90
2022/02/11 00:25:04;;;;;;;21.50;13.80;;;;;;;7.05;100.00;98846.15;2169642;82;21563;-90
2022/02/11 00:34:41;;;;;;;20.02;15.08;;;;;;;7.03;100.00;98858.48;2169000;82;22086;-89
2022/02/11 00:37:37;;;;;;;17.77;14.15;;;;;;;6.95;100.00;98855.36;2170418;82;21576;-89
2022/02/11 00:44:34;;;;;;;20.77;13.50;;;;;;;6.85;100.00;98864.55;2169746;82;21029;-91
2022/02/11 00:47:24;;;;;;;23.38;14.40;;;;;;;6.81;100.00;98868.43;2141341;83;21050;-90
2022/02/11 01:03:33;;;;;;;22.10;15.30;;;;;;;6.62;100.00;98864.70;2127986;84;21066;-89
2022/02/11 01:06:24;;;;;;;22.22;15.78;;;;;;;6.59;100.00;98870.22;2130614;82;21057;-89
2022/02/11 01:09:25;;;;;;;21.00;14.43;;;;;;;6.54;100.00;98877.16;2131357;84;20990;-89
2022/02/11 01:12:28;;;;;;;16.52;12.18;;;;;;;6.48;100.00;98880.84;2131556;84;21097;-89
2022/02/11 01:15:31;;;;;;;10.90;8.03;;;;;;;6.36;100.00;98881.55;2131301;84;21113;-88
2022/02/11 01:18:32;;;;;;;10.72;7.50;;;;;;;6.25;100.00;98875.28;2140940;82;21140;-88
2022/02/11 01:21:42;;;;;;;11.97;8.13;;;;;;;6.14;100.00;98879.39;2177810;82;21037;-89
2022/02/11 01:31:19;;;;;;;6.40;4.80;;;;;;;5.88;100.00;98873.56;2140753;82;21080;-89
2022/02/11 01:34:37;;;;;;;6.92;6.08;;;;;;;5.78;100.00;98868.91;2101313;83;21081;-88
2022/02/11 01:37:33;;;;;;;7.28;6.55;;;;;;;5.69;100.00;98874.48;2124463;84;21029;-89
2022/02/11 01:56:14;;;;;;;5.03;4.03;;;;;;;5.43;100.00;98883.41;2150903;83;20985;-89
2022/02/11 02:09:46;;;;;;;3.52;3.30;;;;;;;5.28;100.00;98880.93;2116977;84;21599;-90
2022/02/11 02:28:34;;;;;;;12.53;7.50;;;;;;;5.18;100.00;98881.44;2151802;83;21083;-91
2022/02/11 02:57:43;;;;;;;6.58;5.10;;;;;;;4.88;100.00;98891.55;2226720;80;21087;-89
2022/02/11 03:57:01;;;;;;;7.62;6.72;;;;;;;4.78;100.00;98908.91;2201442;80;21559;-90
2022/02/11 04:55:42;;;;;;;7.45;6.58;;;;;;;4.68;100.00;98886.88;2185856;80;21007;-78
2022/02/11 05:02:02;;;;;;;7.70;6.28;;;;;;;4.71;100.00;98892.25;2191453;80;21008;-82
2022/02/11 05:05:04;;;;;;;8.10;7.22;;;;;;;4.77;100.00;98893.83;2213979;80;21065;-80
2022/02/11 05:08:05;;;;;;;9.95;7.42;;;;;;;4.79;100.00;98900.17;2213732;80;20965;-79
2022/02/11 05:11:09;;;;;;;7.00;6.50;;;;;;;4.78;100.00;98901.13;2213959;80;21049;-80
2022/02/11 05:14:10;;;;;;;7.22;6.53;;;;;;;4.83;100.00;98902.81;2211293;80;21028;-80
2022/02/11 05:17:10;;;;;;;7.15;6.42;;;;;;;4.82;100.00;98904.59;2211352;80;21044;-80
2022/02/11 05:20:11;;;;;;;6.55;5.95;;;;;;;4.84;100.00;98897.48;2211537;80;21553;-80
2022/02/11 05:23:12;;;;;;;6.80;5.95;;;;;;;4.86;100.00;98901.26;2211442;80;21049;-80
2022/02/11 05:26:13;;;;;;;6.62;6.03;;;;;;;4.85;100.00;98903.52;2212325;80;20942;-81
2022/02/11 05:29:14;;;;;;;7.20;6.60;;;;;;;4.89;100.00;98892.38;2213764;80;21072;-81
2022/02/11 05:32:14;;;;;;;9.10;8.20;;;;;;;4.90;100.00;98902.61;2223716;80;21015;-80
2022/02/11 05:35:15;;;;;;;9.33;8.50;;;;;;;4.91;100.00;98898.23;2224575;80;20972;-82
2022/02/11 05:38:16;;;;;;;27.95;18.55;;;;;;;4.90;100.00;98904.38;2211513;80;21017;-79
2022/02/11 05:41:17;;;;;;;17.15;10.38;;;;;;;4.92;100.00;98907.66;2209344;80;20974;-80
2022/02/11 05:44:18;;;;;;;12.68;8.20;;;;;;;4.94;100.00;98905.73;2209820;80;22088;-80
2022/02/11 05:47:18;;;;;;;15.08;8.20;;;;;;;4.94;100.00;98903.14;2210103;80;21037;-79
2022/02/11 05:50:19;;;;;;;7.37;6.67;;;;;;;4.93;100.00;98907.51;2211626;80;20986;-81
2022/02/11 05:53:20;;;;;;;8.90;7.12;;;;;;;4.92;100.00;98903.28;2206010;80;20993;-81
2022/02/11 05:56:21;;;;;;;6.33;5.70;;;;;;;4.95;100.00;98917.78;2211692;80;21012;-83
2022/02/11 05:59:22;;;;;;;7.15;6.45;;;;;;;4.96;100.00;98909.84;2209217;80;21122;-81
2022/02/11 06:02:23;;;;;;;8.05;6.53;;;;;;;4.98;100.00;98912.30;2209358;80;21041;-80
2022/02/11 06:05:24;;;;;;;10.58;7.60;;;;;;;4.98;100.00;98913.59;2209355;81;21493;-80
2022/02/11 06:08:24;;;;;;;7.45;6.70;;;;;;;5.04;100.00;98916.94;2219531;80;20937;-80
2022/02/11 06:11:29;;;;;;;7.00;6.40;;;;;;;5.05;100.00;98909.02;2226025;80;20957;-81
2022/02/11 06:14:30;;;;;;;6.78;5.75;;;;;;;5.12;100.00;98910.55;2226315;80;21313;-80
2022/02/11 06:17:31;;;;;;;5.87;5.35;;;;;;;5.16;100.00;98905.44;2226238;80;21007;-81
2022/02/11 06:20:32;;;;;;;6.67;5.05;;;;;;;5.13;100.00;98910.44;2216606;80;21532;-83
2022/02/11 06:23:33;;;;;;;7.87;6.85;;;;;;;5.10;100.00;98909.88;2211380;80;20962;-83
2022/02/11 06:26:34;;;;;;;11.50;8.70;;;;;;;5.12;100.00;98907.95;2211382;80;21081;-82
2022/02/11 06:29:37;;;;;;;11.12;9.38;;;;;;;5.16;100.00;98913.70;2211542;80;21005;-82
2022/02/11 06:32:38;;;;;;;12.03;8.75;;;;;;;5.17;100.00;98914.03;2209416;80;21053;-81
2022/02/11 06:35:42;;;;;;;9.65;6.78;;;;;;;5.20;100.00;98908.08;2209382;80;20969;-81
2022/02/11 06:38:41;;;;;;;11.28;7.42;;;;;;;5.22;100.00;98902.28;2209280;80;21028;-81
2022/02/11 06:41:42;;;;;;;13.65;7.33;;;;;;;5.23;100.00;98903.92;2221154;80;21075;-82
2022/02/11 06:44:43;;;;;;;9.83;7.40;;;;;;;5.18;100.00;98891.83;2215255;80;21017;-83
2022/02/11 06:47:44;;;;;;;8.75;7.85;;;;;;;5.15;100.00;98890.82;2229557;80;21562;-81
2022/02/11 06:50:46;;;;;;;9.40;7.83;;;;;;;5.17;100.00;98894.56;2215063;80;21037;-80
2022/02/11 06:53:46;;;;;;;7.67;6.95;;;;;;;5.24;100.00;98904.73;2227766;80;20973;-80
2022/02/11 06:56:47;;;;;;;7.92;6.53;;;;;;;5.33;100.00;98902.11;2228938;80;20949;-80
2022/02/11 06:59:48;;;;;;;7.40;6.25;;;;;;;5.39;100.00;98905.45;2227351;80;20992;-81
2022/02/11 07:02:49;;;;;;;6.15;5.55;;;;;;;5.47;100.00;98902.59;2227489;80;20984;-83
2022/02/11 07:05:51;;;;;;;6.95;6.12;;;;;;;5.57;100.00;98900.30;2227210;80;21674;-84
2022/02/11 07:08:52;;;;;;;6.75;6.15;;;;;;;5.60;100.00;98903.92;2222208;80;21003;-85
2022/02/11 07:11:53;;;;;;;8.28;6.65;;;;;;;5.64;100.00;98905.75;2227160;80;21009;-83
2022/02/11 07:14:54;;;;;;;7.67;6.25;;;;;;;5.65;100.00;98902.19;2227238;80;21282;-84
2022/02/11 07:17:54;;;;;;;8.20;6.80;;;;;;;5.68;100.00;98901.44;2226986;80;21007;-84
2022/02/11 07:20:55;;;;;;;7.72;6.92;;;;;;;5.68;100.00;98891.52;2228128;80;20991;-83
2022/02/11 07:23:56;;;;;;;7.08;6.25;;;;;;;5.75;100.00;98885.25;2221406;80;20994;-83
2022/02/11 07:26:57;;;;;;;7.33;6.20;;;;;;;5.84;100.00;98878.70;2226430;80;20926;-84
2022/02/11 07:29:58;;;;;;;8.30;6.97;;;;;;;5.87;100.00;98873.72;2205679;80;21040;-82
2022/02/11 07:32:58;;;;;;;13.22;7.87;;;;;;;5.90;100.00;98872.96;2224582;80;21057;-83
2022/02/11 07:35:59;;;;;;;8.83;7.42;;;;;;;5.93;100.00;98864.86;2226272;80;20926;-84
2022/02/11 07:39:00;;;;;;;11.75;9.25;;;;;;;6.00;100.00;98854.70;2227971;80;21080;-85
2022/02/11 07:42:01;;;;;;;9.65;7.37;;;;;;;6.08;100.00;98861.29;2216688;80;20981;-80
2022/02/11 07:45:02;;;;;;;6.90;6.30;;;;;;;6.13;100.00;98855.66;2211083;80;20969;-86
2022/02/11 07:48:03;;;;;;;8.08;5.75;;;;;;;6.20;100.00;98861.89;2189327;80;21192;-86
2022/02/11 07:51:04;;;;;;;21.80;8.20;;;;;;;6.27;100.00;98862.45;2213282;80;21049;-85
2022/02/11 07:54:05;;;;;;;9.63;7.17;;;;;;;6.32;100.00;98856.82;2213495;80;20934;-85
2022/02/11 07:57:06;;;;;;;8.48;7.47;;;;;;;6.33;100.00;98843.33;2210836;80;21492;-85
2022/02/11 08:00:06;;;;;;;11.93;8.10;;;;;;;6.32;100.00;98839.10;2209040;80;21037;-85
2022/02/11 08:03:07;;;;;;;15.75;10.30;;;;;;;6.30;100.00;98857.91;2212366;80;21473;-86
2022/02/11 08:06:09;;;;;;;17.57;11.35;;;;;;;6.32;100.00;98858.13;2211521;80;21016;-86
2022/02/11 08:09:10;;;;;;;13.85;9.85;;;;;;;6.42;100.00;98856.74;2210322;80;21031;-86
2022/02/11 08:12:12;;;;;;;10.15;8.63;;;;;;;6.49;100.00;98858.60;2209490;80;21013;-86
2022/02/11 08:15:12;;;;;;;9.35;7.42;;;;;;;6.52;100.00;98855.69;2208727;80;21008;-82
2022/02/11 08:18:13;;;;;;;8.45;6.78;;;;;;;6.53;100.00;98853.91;2225661;79;20919;-84
2022/02/11 08:21:14;;;;;;;10.05;7.67;;;;;;;6.52;100.00;98853.09;2200541;80;20980;-81
2022/02/11 08:24:15;;;;;;;9.25;6.85;;;;;;;6.52;100.00;98863.49;2211804;80;21487;-80
2022/02/11 08:27:16;;;;;;;9.43;6.78;;;;;;;6.46;100.00;98852.38;2219401;80;21011;-83
2022/02/11 08:30:17;;;;;;;8.43;6.40;;;;;;;6.53;100.00;98856.02;2224280;80;20965;-81
2022/02/11 08:33:21;;;;;;;6.75;6.12;;;;;;;6.55;100.00;98858.47;2222130;80;20933;-83
2022/02/11 08:36:20;;;;;;;8.03;7.22;;;;;;;6.65;100.00;98858.37;2227500;79;21205;-80
2022/02/11 08:39:21;;;;;;;7.40;6.67;;;;;;;6.68;100.00;98857.61;2221403;79;21009;-80
2022/02/11 08:42:21;;;;;;;6.85;6.08;;;;;;;6.73;100.00;98857.95;2219800;80;21047;-80
2022/02/11 08:45:22;;;;;;;8.00;5.87;;;;;;;6.77;100.00;98851.98;2227612;80;21531;-80
2022/02/11 08:48:23;;;;;;;10.15;6.53;;;;;;;6.85;100.00;98857.22;2210681;80;21016;-80
2022/02/11 08:51:24;;;;;;;6.45;5.80;;;;;;;6.90;100.00;98862.80;2211634;80;21016;-79
2022/02/11 08:54:25;;;;;;;7.72;6.20;;;;;;;6.94;100.00;98860.21;2224637;79;21065;-82
2022/02/11 08:57:29;;;;;;;7.08;6.17;;;;;;;7.07;100.00;98865.03;2223704;80;21398;-80
2022/02/11 09:00:35;;;;;;;;;;;;;;;7.16;100.00;98860.69;2224810;80;21029;-81
2022/02/11 09:03:42;;;;;;;8.63;5.42;;;;;;;7.21;100.00;98867.54;2215866;80;20167;-82
2022/02/11 09:06:50;;;;;;;6.78;5.05;;;;;;;7.27;100.00;98874.26;2213890;78;20985;-82
2022/02/11 09:09:48;;;;;;;6.72;5.75;;;;;;;7.35;100.00;98872.19;2179301;80;20981;-80
2022/02/11 09:12:48;;;;;;;7.75;5.95;;;;;;;7.39;100.00;98870.41;2228276;78;20969;-79
2022/02/11 09:15:50;;;;;;;7.28;5.70;;;;;;;7.44;100.00;98871.26;2227960;80;21052;-84
2022/02/11 09:18:51;;;;;;;5.25;4.75;;;;;;;7.51;100.00;98867.06;2217252;80;20944;-85
2022/02/11 09:21:51;;;;;;;5.42;4.40;;;;;;;7.55;100.00;98875.38;2212788;80;21007;-83
2022/02/11 09:24:54;;;;;;;7.70;4.78;;;;;;;7.53;100.00;98861.69;2207856;78;21056;-83
2022/02/11 09:27:55;;;;;;;5.20;4.20;;;;;;;7.47;100.00;98859.70;2211454;80;21539;-80
2022/02/11 09:30:55;;;;;;;6.62;5.15;;;;;;;7.45;100.00;98853.84;2215410;80;20950;-81
2022/02/11 09:34:03;;;;;;;15.18;9.35;;;;;;;7.44;100.00;98846.51;2229085;80;21008;-79
2022/02/11 09:36:59;;;;;;;16.90;9.00;;;;;;;7.50;100.00;98851.56;2229060;79;21046;-82
2022/02/11 09:40:00;;;;;;;10.43;5.70;;;;;;;7.52;100.00;98845.24;2214677;80;21525;-83
2022/02/11 09:43:01;;;;;;;6.37;5.05;;;;;;;7.55;100.00;98838.89;2211741;80;21052;-82
2022/02/11 09:46:01;;;;;;;6.37;5.33;;;;;;;7.49;100.00;98846.84;2210245;80;21492;-83
2022/02/11 09:49:02;;;;;;;7.47;5.58;;;;;;;7.40;100.00;98843.37;2210731;80;21004;-79
2022/02/11 09:52:05;;;;;;;6.75;4.47;;;;;;;7.31;100.00;98837.80;2207501;80;21503;-82
2022/02/11 09:58:25;;;;;;;9.43;5.65;;;;;;;7.11;100.00;98837.22;2210108;79;21454;-81
2022/02/11 10:01:26;;;;;;;12.93;6.20;;;;;;;7.08;100.00;98836.23;2230870;79;20972;-80
2022/02/11 10:04:27;;;;;;;13.13;6.97;;;;;;;6.95;100.00;98827.19;2218628;79;21447;-82
2022/02/11 10:07:27;;;;;;;12.98;7.67;;;;;;;6.92;100.00;98837.42;2185525;81;20969;-80
2022/02/11 10:10:42;;;;;;;10.63;7.58;;;;;;;6.88;100.00;98827.48;2200952;80;20988;-81
2022/02/11 10:13:43;;;;;;;12.78;6.33;;;;;;;6.86;100.00;98834.16;2211592;79;21017;-82
2022/02/11 10:16:43;;;;;;;9.88;5.87;;;;;;;6.80;100.00;98827.76;2203520;81;22030;-82
2022/02/11 10:19:44;;;;;;;10.40;6.37;;;;;;;6.76;100.00;98819.09;2211738;78;21040;-81
2022/02/11 10:22:45;;;;;;;9.00;5.50;;;;;;;6.81;100.00;98818.98;2165721;82;21469;-83
2022/02/11 10:25:46;;;;;;;13.18;6.83;;;;;;;6.88;100.00;98812.69;2171788;82;21032;-80
2022/02/11 10:28:48;;;;;;;9.83;6.58;;;;;;;6.85;100.00;98804.67;2182281;81;21072;-83
2022/02/11 10:31:49;;;;;;;8.73;6.97;;;;;;;6.98;100.00;98812.58;2183446;80;21045;-81
2022/02/11 10:34:50;;;;;;;7.17;6.08;;;;;;;7.16;100.00;98800.31;2217987;79;21020;-80
2022/02/11 10:37:51;;;;;;;11.83;7.97;;;;;;;7.23;100.00;98797.42;2191897;80;20985;-83
2022/02/11 10:40:53;;;;;;;13.48;6.90;;;;;;;7.24;100.00;98787.33;2197336;78;21036;-81
2022/02/11 10:43:54;;;;;;;11.78;8.15;;;;;;;7.29;100.00;98788.96;2203455;80;20996;-81
2022/02/11 10:46:55;;;;;;;12.78;8.83;;;;;;;7.20;100.00;98778.18;2204454;81;20881;-81
2022/02/11 10:49:56;;;;;;;15.78;9.23;;;;;;;7.15;100.00;98779.15;2180897;81;20933;-86
2022/02/11 10:52:57;;;;;;;19.73;10.32;;;;;;;7.12;100.00;98779.44;2199599;81;20925;-81
2022/02/11 10:55:58;;;;;;;21.00;13.50;;;;;;;7.10;100.00;98774.39;2200577;80;21036;-80
2022/02/11 10:58:59;;;;;;;19.27;12.82;;;;;;;7.04;100.00;98772.44;2126526;82;20997;-80
2022/02/11 11:01:59;;;;;;;20.48;11.60;;;;;;;7.07;100.00;98783.02;2194201;81;20959;-86
2022/02/11 11:05:00;;;;;;;16.25;11.20;;;;;;;7.15;100.00;98764.83;2142621;82;21015;-79
2022/02/11 11:08:01;;;;;;;22.98;12.65;;;;;;;7.19;100.00;98764.02;2142083;83;20977;-81
2022/02/11 11:11:04;;;;;;;22.50;13.55;;;;;;;7.29;100.00;98757.70;2169403;82;20988;-79
2022/02/11 11:14:04;;;;;;;24.55;14.87;;;;;;;7.39;100.00;98752.36;2177300;82;21197;-80
2022/02/11 11:17:05;;;;;;;24.80;15.90;;;;;;;7.51;100.00;98739.88;2154060;82;21016;-82
2022/02/11 11:20:06;;;;;;;26.00;15.20;;;;;;;7.58;100.00;98741.66;2161702;82;20989;-84
2022/02/11 11:23:07;;;;;;;20.12;13.85;;;;;;;7.66;100.00;98744.29;2155592;82;21016;-82
2022/02/11 11:26:09;;;;;;;26.33;16.10;;;;;;;7.71;100.00;98742.52;2171523;82;21570;-83
2022/02/11 11:29:10;;;;;;;24.12;16.02;;;;;;;7.75;100.00;98733.39;2203598;81;21394;-82
2022/02/11 11:32:11;;;;;;;21.62;15.65;;;;;;;7.78;100.00;98727.06;2202939;81;20958;-85
2022/02/11 11:35:12;;;;;;;20.30;14.80;;;;;;;7.80;100.00;98727.71;2203244;81;21065;-82
2022/02/11 11:38:13;;;;;;;22.90;15.75;;;;;;;7.78;100.00;98716.15;2140486;82;20981;-85
2022/02/11 11:41:14;;;;;;;23.67;17.02;;;;;;;7.79;100.00;98711.75;2143788;82;21519;-80
2022/02/11 11:44:15;;;;;;;25.75;18.00;;;;;;;7.80;100.00;98707.67;2192066;80;21477;-82
2022/02/11 11:47:18;;;;;;;25.82;17.80;;;;;;;7.80;100.00;98701.16;2199714;80;21009;-83
2022/02/11 11:50:18;;;;;;;25.48;17.25;;;;;;;7.83;100.00;98706.03;2211030;79;21028;-80
2022/02/11 11:53:19;;;;;;;25.82;18.17;;;;;;;7.84;100.00;98703.75;2219044;79;20978;-81
2022/02/11 11:56:20;;;;;;;28.90;21.10;;;;;;;7.83;100.00;98706.52;2213754;79;21067;-83
2022/02/11 11:59:20;;;;;;;31.77;21.17;;;;;;;7.86;100.00;98704.43;2220835;78;21514;-82
2022/02/11 12:02:21;;;;;;;31.20;21.07;;;;;;;7.89;100.00;98706.70;2220738;78;20991;-82
2022/02/11 12:05:22;;;;;;;34.13;21.27;;;;;;;7.87;100.00;98698.23;2230093;79;21016;-83
2022/02/11 12:08:28;;;;;;;35.10;22.22;;;;;;;7.85;100.00;98700.16;2196964;80;20995;-82
2022/02/11 12:11:25;;;;;;;27.35;20.55;;;;;;;7.85;100.00;98696.75;2186683;80;21095;-82
2022/02/11 12:14:27;;;;;;;31.70;23.70;;;;;;;7.90;100.00;98698.39;2185807;81;20986;-83
2022/02/11 12:17:28;;;;;;;41.63;28.73;;;;;;;7.94;100.00;98703.09;2201372;80;20949;-83
2022/02/11 12:20:28;;;;;;;48.28;30.50;;;;;;;7.97;100.00;98700.19;2224294;80;21504;-83
2022/02/11 12:30:08;;;;;;;35.80;24.95;;;;;;;7.87;100.00;98696.93;2222128;80;21076;-83
2022/02/11 12:33:09;;;;;;;43.08;27.00;;;;;;;7.81;100.00;98696.27;2223816;80;20980;-83
2022/02/11 12:36:10;;;;;;;30.05;22.22;;;;;;;7.73;100.00;98701.95;2224524;80;21066;-84
2022/02/11 12:39:11;;;;;;;27.60;18.67;;;;;;;7.69;100.00;98699.69;2216331;80;21434;-83
2022/02/11 12:42:12;;;;;;;32.98;21.10;;;;;;;7.63;100.00;98696.41;2214130;80;21012;-83
2022/02/11 12:45:12;;;;;;;25.57;18.70;;;;;;;7.59;100.00;98704.70;2202422;79;20981;-83
2022/02/11 12:48:14;;;;;;;27.52;18.57;;;;;;;7.52;100.00;98695.91;2222999;80;20945;-83
2022/02/11 12:51:17;;;;;;;30.88;20.17;;;;;;;7.45;100.00;98691.82;2223118;80;21008;-83
2022/02/11 12:54:19;;;;;;;32.08;19.82;;;;;;;7.43;100.00;98692.97;2219507;80;21437;-83
2022/02/11 12:57:19;;;;;;;30.90;20.25;;;;;;;7.41;100.00;98694.43;2187468;80;20992;-83
2022/02/11 13:00:20;;;;;;;28.50;20.17;;;;;;;7.38;100.00;98709.88;2207327;80;20993;-83
2022/02/11 13:03:22;;;;;;;15.18;11.68;;;;;;;7.24;100.00;98722.22;2215244;80;20965;-83
2022/02/11 13:06:23;;;;;;;10.35;7.33;;;;;;;6.82;100.00;98768.55;2223680;80;21033;-84
2022/02/11 13:09:24;;;;;;;11.85;7.83;;;;;;;6.30;100.00;98776.81;2213618;80;21008;-85
2022/02/11 13:12:24;;;;;;;11.10;7.35;;;;;;;5.93;100.00;98757.48;2204303;80;20984;-83
2022/02/11 13:15:27;;;;;;;10.95;7.78;;;;;;;5.62;100.00;98766.10;2189248;81;20957;-84
2022/02/11 13:18:30;;;;;;;11.30;7.55;;;;;;;5.49;100.00;98771.66;2189956;80;21358;-84
2022/02/11 13:21:31;;;;;;;9.93;6.37;;;;;;;5.34;100.00;98780.89;2191777;80;21061;-84
2022/02/11 13:24:32;;;;;;;10.18;6.70;;;;;;;5.24;100.00;98787.91;2217827;80;20976;-85
2022/02/11 13:27:32;;;;;;;9.03;5.08;;;;;;;5.05;100.00;98792.70;2213480;80;21008;-85
2022/02/11 13:30:37;;;;;;;12.03;7.17;;;;;;;4.83;100.00;98815.90;2226650;80;20945;-84
2022/02/11 13:33:38;;;;;;;11.48;8.43;;;;;;;4.65;100.00;98820.98;2212692;80;20959;-84
2022/02/11 13:36:45;;;;;;;14.65;8.65;;;;;;;4.50;100.00;98830.17;2187773;80;20997;-84
2022/02/11 13:39:44;;;;;;;9.00;6.25;;;;;;;4.38;100.00;98837.73;2227523;80;21061;-85
2022/02/11 13:42:44;;;;;;;10.98;6.85;;;;;;;4.17;100.00;98853.42;2220171;80;21077;-84
2022/02/11 13:45:45;;;;;;;11.60;7.05;;;;;;;4.04;100.00;98853.70;2189354;81;20953;-85
2022/02/11 13:48:46;;;;;;;7.75;6.00;;;;;;;3.92;100.00;98877.59;2188787;81;21024;-84
2022/02/11 13:53:01;;;;;;;8.60;5.45;;;;;;;3.80;100.00;98877.37;2161824;81;21016;-84
2022/02/11 13:54:49;;;;;;;9.18;5.75;;;;;;;3.65;100.00;98896.33;2194182;81;20970;-84
2022/02/11 13:57:50;;;;;;;10.18;7.30;;;;;;;3.52;100.00;98898.81;2166297;81;21614;-85
2022/02/11 14:00:53;;;;;;;10.25;7.95;;;;;;;3.37;100.00;98910.80;2161937;80;21000;-84
2022/02/11 14:03:53;;;;;;;22.15;12.55;;;;;;;3.27;100.00;98921.58;2183739;81;21465;-84
2022/02/11 14:06:54;;;;;;;29.67;14.38;;;;;;;3.20;100.00;98920.47;2203559;81;21072;-84
2022/02/11 14:09:55;;;;;;;25.15;13.32;;;;;;;3.17;100.00;98937.52;2139771;83;20957;-84
2022/02/11 14:12:57;;;;;;;29.05;14.18;;;;;;;3.11;100.00;98939.34;2150117;80;21784;-85
2022/02/11 14:15:58;;;;;;;19.12;12.00;;;;;;;3.04;100.00;98950.66;2208231;80;21030;-85
2022/02/11 14:18:58;;;;;;;25.57;11.78;;;;;;;3.01;100.00;98961.24;2184293;81;21124;-84
2022/02/11 14:21:59;;;;;;;19.82;10.58;;;;;;;2.91;100.00;98977.17;2183000;80;20978;-80
2022/02/11 14:25:00;;;;;;;22.80;11.57;;;;;;;2.80;100.00;98984.51;2126339;83;21056;-85
2022/02/11 14:28:01;;;;;;;29.72;14.78;;;;;;;2.76;100.00;98992.17;2150655;83;21525;-81
2022/02/11 14:31:02;;;;;;;20.57;10.10;;;;;;;2.66;100.00;99008.08;2107788;83;21160;-82
2022/02/11 14:34:03;;;;;;;13.55;8.35;;;;;;;2.56;100.00;99019.63;2107311;83;20976;-83
2022/02/11 14:37:04;;;;;;;10.00;6.60;;;;;;;2.48;100.00;99027.16;2123288;82;21029;-83
2022/02/11 14:40:04;;;;;;;11.85;7.62;;;;;;;2.43;100.00;99040.91;2136292;83;21039;-82
2022/02/11 14:43:05;;;;;;;20.08;11.48;;;;;;;2.38;100.00;99053.82;2144562;82;21005;-80
2022/02/11 14:46:06;;;;;;;13.18;8.60;;;;;;;2.34;100.00;99078.27;2175582;81;21519;-83
2022/02/11 14:49:07;;;;;;;16.75;9.53;;;;;;;2.25;100.00;99083.20;2166976;81;20957;-83
2022/02/11 14:52:08;;;;;;;20.90;11.12;;;;;;;2.22;100.00;99084.74;2153392;83;21035;-84
2022/02/11 14:55:09;;;;;;;20.43;10.38;;;;;;;2.20;100.00;99095.67;2200077;80;21079;-83
2022/02/11 14:58:13;;;;;;;20.52;10.95;;;;;;;2.12;100.00;99100.59;2230178;79;21061;-84
2022/02/11 15:01:13;;;;;;;23.38;11.60;;;;;;;2.10;100.00;99107.62;2223934;80;21560;-81
2022/02/11 15:04:15;;;;;;;16.27;9.85;;;;;;;2.07;100.00;99116.08;2223768;80;21083;-82
2022/02/11 15:07:16;;;;;;;16.15;10.03;;;;;;;2.03;100.00;99125.02;2194071;80;21088;-85
2022/02/11 15:10:19;;;;;;;20.10;11.45;;;;;;;2.00;100.00;99125.58;2216990;80;20965;-83
2022/02/11 15:13:19;;;;;;;13.35;8.53;;;;;;;2.01;100.00;99140.59;2199102;80;21014;-83
2022/02/11 15:16:20;;;;;;;16.07;10.23;;;;;;;1.97;100.00;99150.35;2159918;82;21551;-80
2022/02/11 15:19:21;;;;;;;11.63;8.30;;;;;;;1.97;100.00;99162.44;2150634;83;20960;-80
2022/02/11 15:22:22;;;;;;;14.07;8.95;;;;;;;2.00;100.00;99171.25;2223562;79;20995;-80
2022/02/11 15:25:23;;;;;;;11.83;8.05;;;;;;;2.00;100.00;99172.53;2179261;82;20981;-79
2022/02/11 15:28:24;;;;;;;14.75;9.88;;;;;;;1.98;100.00;99179.11;2140945;82;21041;-83
2022/02/11 15:31:25;;;;;;;14.15;8.00;;;;;;;2.00;100.00;99175.12;2199043;80;20989;-80
2022/02/11 15:34:25;;;;;;;13.85;8.83;;;;;;;1.98;100.00;99177.00;2203738;81;20965;-82
2022/02/11 15:37:26;;;;;;;11.18;7.62;;;;;;;2.03;100.00;99194.75;2203613;81;21080;-81
2022/02/11 15:40:27;;;;;;;11.28;6.97;;;;;;;2.02;100.00;99196.98;2137919;83;21417;-80
2022/02/11 15:43:29;;;;;;;11.63;7.45;;;;;;;2.01;100.00;99203.88;2160575;82;21052;-82
2022/02/11 15:46:30;;;;;;;11.70;7.60;;;;;;;2.02;100.00;99217.19;2168876;81;20953;-82
2022/02/11 15:49:30;;;;;;;11.08;6.62;;;;;;;1.93;100.00;99235.94;2209844;81;21005;-81
2022/02/11 15:52:31;;;;;;;10.43;6.45;;;;;;;1.93;100.00;99235.94;2209804;80;21488;-83
2022/02/11 15:55:32;;;;;;;9.80;6.90;;;;;;;1.89;100.00;99244.83;2210743;80;20997;-82
2022/02/11 15:58:33;;;;;;;12.25;7.12;;;;;;;1.88;100.00;99245.30;2209609;80;21608;-81
2022/02/11 16:01:34;;;;;;;12.65;7.05;;;;;;;1.85;100.00;99258.91;2209433;81;20998;-83
2022/02/11 16:04:35;;;;;;;14.18;10.32;;;;;;;1.85;100.00;99258.44;2209470;81;20989;-81
2022/02/11 16:07:36;;;;;;;13.55;7.95;;;;;;;1.84;100.00;99261.96;2201392;80;20953;-82
2022/02/11 16:10:37;;;;;;;16.87;10.08;;;;;;;1.79;100.00;99260.63;2185325;81;21025;-82
2022/02/11 16:13:38;;;;;;;15.40;9.43;;;;;;;1.79;100.00;99273.55;2186329;80;21091;-81
2022/02/11 16:16:39;;;;;;;14.83;8.55;;;;;;;1.80;100.00;99286.34;2209443;81;20938;-85
2022/02/11 16:19:41;;;;;;;16.07;9.85;;;;;;;1.78;100.00;99286.10;2209426;80;21028;-82
2022/02/11 16:22:42;;;;;;;13.98;9.63;;;;;;;1.78;100.00;99299.83;2209567;81;21536;-82
2022/02/11 16:25:43;;;;;;;12.58;8.15;;;;;;;1.77;100.00;99295.61;2218949;80;20993;-82
2022/02/11 16:28:44;;;;;;;10.88;8.18;;;;;;;1.75;100.00;99304.41;2185483;81;21012;-79
2022/02/11 16:31:49;;;;;;;8.03;6.10;;;;;;;1.75;100.00;99306.98;2207084;80;21513;-81
2022/02/11 16:34:48;;;;;;;5.92;5.33;;;;;;;1.74;100.00;99297.56;2209379;80;20993;-84
2022/02/11 16:37:48;;;;;;;6.15;4.75;;;;;;;1.78;100.00;99302.89;2220094;80;21558;-79
2022/02/11 16:40:49;;;;;;;5.08;4.20;;;;;;;1.79;100.00;99308.41;2224086;80;20941;-84
2022/02/11 16:43:50;;;;;;;10.43;5.90;;;;;;;1.80;100.00;99304.41;2219852;80;21008;-80
2022/02/11 16:46:51;;;;;;;8.58;5.80;;;;;;;1.77;100.00;99316.27;2211916;80;20936;-81
2022/02/11 16:49:52;;;;;;;7.20;6.42;;;;;;;1.78;100.00;99322.25;2193114;80;20984;-80
2022/02/11 16:52:53;;;;;;;6.62;5.22;;;;;;;1.80;100.00;99324.25;2189644;81;21517;-82
2022/02/11 16:55:54;;;;;;;8.93;5.47;;;;;;;1.78;100.00;99330.82;2190560;80;20986;-82
2022/02/11 16:58:55;;;;;;;6.03;4.80;;;;;;;1.77;100.00;99327.88;2189564;81;21041;-81
2022/02/11 17:01:55;;;;;;;5.03;4.00;;;;;;;1.81;100.00;99338.34;2208392;80;20903;-80
2022/02/11 17:04:56;;;;;;;5.08;4.58;;;;;;;1.87;100.00;99343.08;2197123;80;21015;-81
2022/02/11 17:07:57;;;;;;;7.90;6.33;;;;;;;1.92;100.00;99349.19;2219729;80;20998;-80
2022/02/11 17:10:58;;;;;;;5.47;4.90;;;;;;;1.96;100.00;99354.52;2220238;80;21020;-80
2022/02/11 17:13:59;;;;;;;6.92;6.33;;;;;;;2.01;100.00;99367.91;2225310;80;20894;-81
2022/02/11 17:16:59;;;;;;;6.42;5.80;;;;;;;2.03;100.00;99367.36;2213474;80;22091;-80
2022/02/11 17:20:00;;;;;;;9.78;6.72;;;;;;;2.10;100.00;99375.47;2212321;80;21052;-80
2022/02/11 17:23:17;;;;;;;;;;;;;;;;;;;;;
2022/02/11 17:26:15;;;;;;;7.45;6.65;;;;;;;2.20;100.00;99390.70;2162126;80;21592;-82
2022/02/11 17:29:15;;;;;;;6.55;5.95;;;;;;;2.20;100.00;99386.83;2220413;80;21501;-82
2022/02/11 17:32:16;;;;;;;9.30;8.08;;;;;;;2.22;100.00;99399.16;2219994;80;20958;-81
2022/02/11 17:35:17;;;;;;;8.13;6.45;;;;;;;2.21;100.00;99399.63;2194620;80;21492;-83
2022/02/11 17:38:18;;;;;;;9.18;6.03;;;;;;;2.25;100.00;99399.75;2190095;80;21141;-81
2022/02/11 17:41:23;;;;;;;6.50;5.87;;;;;;;2.27;100.00;99403.52;2219978;80;21472;-80
2022/02/11 17:44:21;;;;;;;8.50;6.33;;;;;;;2.27;100.00;99399.17;2178364;80;21114;-83
2022/02/11 17:47:22;;;;;;;11.20;6.72;;;;;;;2.30;100.00;99402.48;2165585;81;20997;-80
2022/02/11 17:50:23;;;;;;;9.28;6.47;;;;;;;2.33;100.00;99406.96;2165918;81;21030;-82